createdAt,value
2023-04-05T00:00:39.527Z,99127.66
2023-04-05T00:03:42.970Z,99123.59
2023-04-05T00:06:46.481Z,99128.91
2023-04-05T00:09:49.866Z,99125.47
2023-04-05T00:12:53.713Z,99125.16
2023-04-05T00:15:58.161Z,99118.63
2023-04-05T00:19:02.064Z,99113.56
2023-04-05T00:22:05.110Z,99106.44
2023-04-05T00:25:08.308Z,99109.22
2023-04-05T00:28:12.667Z,99093.47
2023-04-05T00:31:15.414Z,99087.53
2023-04-05T00:34:17.923Z,99089.72
2023-04-05T00:37:20.541Z,99090.78
2023-04-05T00:40:23.073Z,99085.66
2023-04-05T00:43:27.048Z,99093.13
2023-04-05T00:46:29.808Z,99087.09
2023-04-05T00:49:34.189Z,99085.16
2023-04-05T00:52:37.840Z,99079.16
2023-04-05T00:55:40.900Z,99085.28
2023-04-05T00:58:44.778Z,99077.13
2023-04-05T01:01:55.440Z,99077.31
2023-04-05T01:05:01.985Z,99071.94
2023-04-05T01:08:09.374Z,99066.00
2023-04-05T01:11:13.317Z,99061.84
2023-04-05T01:14:17.250Z,99062.09
2023-04-05T01:17:22.280Z,99054.28
2023-04-05T01:20:28.274Z,99053.06
2023-04-05T01:23:38.948Z,99054.31
2023-04-05T01:26:50.744Z,99049.00
2023-04-05T01:30:00.612Z,99041.19
2023-04-05T01:33:11.991Z,99041.66
2023-04-05T01:36:19.349Z,99034.66
2023-04-05T01:39:22.503Z,99034.94
2023-04-05T01:42:26.402Z,99032.25
2023-04-05T01:45:31.409Z,99032.53
2023-04-05T01:48:33.985Z,99042.41
2023-04-05T01:51:36.481Z,99026.78
2023-04-05T01:54:39.069Z,99032.09
2023-04-05T01:57:41.590Z,99036.31
2023-04-05T02:00:46.490Z,99030.88
2023-04-05T02:03:49.077Z,99034.13
2023-04-05T02:06:51.721Z,99027.69
2023-04-05T02:09:54.281Z,99023.31
2023-04-05T02:12:56.900Z,99031.38
2023-04-05T02:16:01.007Z,99029.19
2023-04-05T02:19:03.562Z,99016.72
2023-04-05T02:22:06.057Z,99023.13
2023-04-05T02:25:09.771Z,99015.50
2023-04-05T02:28:12.336Z,99014.69
2023-04-05T02:31:16.404Z,99014.84
2023-04-05T02:34:19.018Z,99014.53
2023-04-05T02:37:21.879Z,99015.06
2023-04-05T02:40:25.203Z,99015.59
2023-04-05T02:43:28.040Z,99011.84
2023-04-05T02:46:31.863Z,99014.84
2023-04-05T02:49:34.384Z,99009.41
2023-04-05T02:52:37.589Z,99013.38
2023-04-05T02:55:42.165Z,99013.78
2023-04-05T02:58:44.858Z,99010.47
2023-04-05T03:01:48.781Z,99009.16
2023-04-05T03:04:53.253Z,99007.53
2023-04-05T03:07:55.622Z,99006.72
2023-04-05T03:10:58.223Z,99011.44
2023-04-05T03:14:00.783Z,99005.91
2023-04-05T03:17:04.827Z,99002.66
2023-04-05T03:20:09.903Z,99005.59
2023-04-05T03:23:12.411Z,99001.75
2023-04-05T03:26:15.118Z,98996.03
2023-04-05T03:29:18.294Z,99001.66
2023-04-05T03:32:22.341Z,99001.56
2023-04-05T03:35:24.893Z,98994.81
2023-04-05T03:38:28.450Z,99003.25
2023-04-05T03:41:30.964Z,98998.28
2023-04-05T03:44:33.598Z,99002.59
2023-04-05T03:47:37.841Z,99002.84
2023-04-05T03:50:40.544Z,99004.16
2023-04-05T03:53:43.138Z,99001.13
2023-04-05T03:56:46.039Z,98995.66
2023-04-05T03:59:48.576Z,98999.66
2023-04-05T04:02:53.616Z,98999.00
2023-04-05T04:05:56.269Z,98999.59
2023-04-05T04:08:58.891Z,98996.34
2023-04-05T04:12:01.445Z,98999.75
2023-04-05T04:15:04.148Z,98998.69
2023-04-05T04:18:08.162Z,98996.56
2023-04-05T04:21:11.701Z,98998.69
2023-04-05T04:24:19.379Z,98999.41
2023-04-05T04:27:22.164Z,99004.06
2023-04-05T04:30:25.140Z,98998.59
2023-04-05T04:33:29.040Z,99004.19
2023-04-05T04:36:36.988Z,98999.34
2023-04-05T04:39:39.731Z,99002.72
2023-04-05T04:42:44.380Z,99004.72
2023-04-05T04:45:48.331Z,99006.34
2023-04-05T04:48:52.369Z,99003.50
2023-04-05T04:51:54.707Z,99005.13
2023-04-05T04:54:57.476Z,99003.34
2023-04-05T04:58:00.754Z,99011.63
2023-04-05T05:01:08.710Z,99013.69
2023-04-05T05:04:12.858Z,99015.91
2023-04-05T05:07:15.800Z,99009.13
2023-04-05T05:10:18.932Z,99007.03
2023-04-05T05:13:21.443Z,99013.22
2023-04-05T05:16:24.172Z,99020.31
2023-04-05T05:19:28.899Z,99023.56
2023-04-05T05:22:31.711Z,99021.78
2023-04-05T05:25:34.228Z,99023.09
2023-04-05T05:28:38.596Z,99027.09
2023-04-05T05:31:41.262Z,99022.72
2023-04-05T05:34:45.569Z,99017.78
2023-04-05T05:37:48.184Z,99013.31
2023-04-05T05:40:56.446Z,99016.06
2023-04-05T05:43:59.147Z,99012.16
2023-04-05T05:47:01.698Z,99010.47
2023-04-05T05:50:06.363Z,99013.53
2023-04-05T05:53:08.905Z,99007.69
2023-04-05T05:56:12.277Z,99010.78
2023-04-05T05:59:14.944Z,99008.72
2023-04-05T06:02:17.522Z,99013.78
2023-04-05T06:05:21.490Z,99006.41
2023-04-05T06:08:24.305Z,99019.75
2023-04-05T06:11:26.820Z,99014.19
2023-04-05T06:14:29.893Z,99016.09
2023-04-05T06:17:34.098Z,99024.38
2023-04-05T06:20:41.309Z,99024.81
2023-04-05T06:23:44.123Z,99018.56
2023-04-05T06:26:46.630Z,99022.59
2023-04-05T06:29:49.121Z,99021.91
2023-04-05T06:32:54.593Z,99025.03
2023-04-05T06:35:58.655Z,99031.31
2023-04-05T06:39:01.431Z,99029.25
2023-04-05T06:42:04.208Z,99021.53
2023-04-05T06:45:07.620Z,99024.72
2023-04-05T06:48:10.404Z,99026.38
2023-04-05T06:51:14.265Z,99026.97
2023-04-05T06:54:16.839Z,99024.09
2023-04-05T06:57:19.490Z,99024.91
2023-04-05T07:00:22.356Z,99025.34
2023-04-05T07:03:25.046Z,99022.75
2023-04-05T07:06:28.911Z,99030.91
2023-04-05T07:09:32.803Z,99028.00
2023-04-05T07:12:35.596Z,99037.00
2023-04-05T07:15:38.266Z,99036.25
2023-04-05T07:18:40.899Z,99031.44
2023-04-05T07:21:44.992Z,99036.06
2023-04-05T07:24:48.499Z,99042.56
2023-04-05T07:27:52.752Z,99035.53
2023-04-05T07:30:55.427Z,99034.22
2023-04-05T07:33:59.385Z,99032.06
2023-04-05T07:37:03.416Z,99025.56
2023-04-05T07:40:08.577Z,99028.25
2023-04-05T07:43:11.617Z,99028.25
2023-04-05T07:46:14.167Z,99024.75
2023-04-05T07:49:16.861Z,99034.44
2023-04-05T07:52:20.702Z,99031.44
2023-04-05T07:55:23.057Z,99033.56
2023-04-05T07:58:26.297Z,99033.84
2023-04-05T08:01:29.002Z,99030.81
2023-04-05T08:04:31.681Z,99036.81
2023-04-05T08:07:37.703Z,99038.38
2023-04-05T08:10:40.935Z,99031.03
2023-04-05T08:13:43.976Z,99025.53
2023-04-05T08:16:46.563Z,99028.78
2023-04-05T08:19:49.998Z,99022.19
2023-04-05T08:22:54.697Z,99025.19
2023-04-05T08:25:57.634Z,99026.25
2023-04-05T08:29:00.292Z,99027.22
2023-04-05T08:32:02.808Z,99024.91
2023-04-05T08:35:06.567Z,99020.78
2023-04-05T08:38:12.246Z,99020.03
2023-04-05T08:41:19.323Z,99021.00
2023-04-05T08:44:23.832Z,99024.41
2023-04-05T08:47:26.632Z,99023.97
2023-04-05T08:50:29.531Z,99027.19
2023-04-05T08:53:34.305Z,99018.50
2023-04-05T08:56:37.438Z,99024.16
2023-04-05T08:59:41.016Z,99016.66
2023-04-05T09:02:45.498Z,99019.59
2023-04-05T09:05:51.003Z,99025.28
2023-04-05T09:08:55.879Z,99021.56
2023-04-05T09:11:58.592Z,99028.63
2023-04-05T09:15:02.090Z,99014.69
2023-04-05T09:18:12.371Z,99019.41
2023-04-05T09:21:23.493Z,99022.91
2023-04-05T09:24:34.815Z,99020.56
2023-04-05T09:27:37.814Z,99021.72
2023-04-05T09:30:40.604Z,99027.41
2023-04-05T09:33:43.358Z,99013.53
2023-04-05T09:36:46.147Z,99015.84
2023-04-05T09:39:52.228Z,99010.91
2023-04-05T09:42:54.937Z,99017.53
2023-04-05T09:45:57.544Z,99009.31
2023-04-05T09:49:00.623Z,99005.84
2023-04-05T09:52:03.273Z,98998.41
2023-04-05T09:55:08.624Z,99013.00
2023-04-05T09:58:13.269Z,99013.63
2023-04-05T10:01:17.111Z,99009.44
2023-04-05T10:04:21.486Z,98995.19
2023-04-05T10:07:24.178Z,98993.13
2023-04-05T10:10:28.250Z,98997.03
2023-04-05T10:13:30.992Z,98988.38
2023-04-05T10:16:35.522Z,98990.88
2023-04-05T10:19:46.561Z,98987.06
2023-04-05T10:23:05.211Z,98993.44
2023-04-05T10:26:15.718Z,98986.06
2023-04-05T10:29:22.830Z,98978.09
2023-04-05T10:32:43.562Z,98978.63
2023-04-05T10:35:55.064Z,98976.81
2023-04-05T10:39:04.209Z,98973.97
2023-04-05T10:42:11.246Z,98970.72
2023-04-05T10:45:17.896Z,98976.59
2023-04-05T10:48:26.653Z,98955.22
2023-04-05T10:51:29.912Z,98974.47
2023-04-05T10:54:34.886Z,98969.19
2023-04-05T10:57:39.084Z,98978.09
2023-04-05T11:00:42.145Z,98978.19
2023-04-05T11:03:48.998Z,98955.19
2023-04-05T11:07:12.263Z,98960.44
2023-04-05T11:10:17.777Z,98958.81
2023-04-05T11:13:21.620Z,98949.94
2023-04-05T11:16:26.042Z,98947.34
2023-04-05T11:19:49.966Z,98945.47
2023-04-05T11:22:55.597Z,98942.19
2023-04-05T11:26:04.754Z,98934.53
2023-04-05T11:29:09.041Z,98929.66
2023-04-05T11:32:13.508Z,98925.56
2023-04-05T11:35:17.881Z,98921.31
2023-04-05T11:38:23.150Z,98929.03
2023-04-05T11:41:27.053Z,98921.56
2023-04-05T11:44:41.823Z,98920.66
2023-04-05T11:47:44.614Z,98915.53
2023-04-05T11:50:48.355Z,98918.13
2023-04-05T11:53:50.930Z,98922.31
2023-04-05T11:56:53.470Z,98910.09
2023-04-05T11:59:57.722Z,98912.03
2023-04-05T12:03:00.463Z,98912.03
2023-04-05T12:06:03.726Z,98904.91
2023-04-05T12:09:08.285Z,98905.25
2023-04-05T12:12:17.498Z,98905.44
2023-04-05T12:15:21.534Z,98897.28
2023-04-05T12:18:26.263Z,98888.72
2023-04-05T12:21:29.102Z,98886.44
2023-04-05T12:24:31.840Z,98883.69
2023-04-05T12:27:34.770Z,98885.50
2023-04-05T12:30:49.642Z,98880.94
2023-04-05T12:33:52.231Z,98874.19
2023-04-05T12:36:55.189Z,98867.38
2023-04-05T12:39:57.804Z,98870.16
2023-04-05T12:43:04.589Z,98872.66
2023-04-05T12:46:11.237Z,98867.09
2023-04-05T12:49:14.619Z,98869.81
2023-04-05T12:52:20.799Z,98860.34
2023-04-05T12:55:23.770Z,98859.88
2023-04-05T12:58:34.904Z,98862.69
2023-04-05T13:01:39.078Z,98857.56
2023-04-05T13:04:41.764Z,98856.75
2023-04-05T13:07:44.256Z,98858.22
2023-04-05T13:10:47.484Z,98850.22
2023-04-05T13:13:50.081Z,98841.28
2023-04-05T13:16:54.192Z,98836.97
2023-04-05T13:19:56.801Z,98833.50
2023-04-05T13:22:59.889Z,98827.94
2023-04-05T13:26:02.484Z,98832.50
2023-04-05T13:29:05.352Z,98823.31
2023-04-05T13:32:09.395Z,98808.47
2023-04-05T13:35:11.969Z,98805.31
2023-04-05T13:38:14.874Z,98812.19
2023-04-05T13:41:17.476Z,98810.72
2023-04-05T13:44:20.102Z,98811.41
2023-04-05T13:47:24.278Z,98803.69
2023-04-05T13:50:27.411Z,98798.69
2023-04-05T13:53:30.049Z,98795.78
2023-04-05T13:56:32.835Z,98788.94
2023-04-05T13:59:35.848Z,98788.72
2023-04-05T14:02:40.765Z,98791.91
2023-04-05T14:05:43.449Z,98785.28
2023-04-05T14:08:46.083Z,98787.13
2023-04-05T14:11:48.970Z,98784.81
2023-04-05T14:14:51.537Z,98778.16
2023-04-05T14:17:55.509Z,98774.81
2023-04-05T14:20:58.097Z,98784.09
2023-04-05T14:24:00.919Z,98765.19
2023-04-05T14:27:03.670Z,98768.53
2023-04-05T14:30:07.540Z,98767.34
2023-04-05T14:33:14.037Z,98772.50
2023-04-05T14:36:16.890Z,98769.53
2023-04-05T14:39:19.626Z,98766.91
2023-04-05T14:42:22.970Z,98756.78
2023-04-05T14:45:27.344Z,98763.47
2023-04-05T14:48:31.969Z,98751.63
2023-04-05T14:51:34.625Z,98748.66
2023-04-05T14:54:37.118Z,98753.97
2023-04-05T14:57:39.753Z,98746.19
2023-04-05T15:00:42.524Z,98741.63
2023-04-05T15:03:48.317Z,98749.03
2023-04-05T15:06:51.292Z,98743.63
2023-04-05T15:09:53.934Z,98743.19
2023-04-05T15:12:56.468Z,98742.72
2023-04-05T15:15:59.074Z,98744.41
2023-04-05T15:19:02.934Z,98745.72
2023-04-05T15:22:05.808Z,98740.13
2023-04-05T15:25:09.226Z,98739.25
2023-04-05T15:28:11.773Z,98739.09
2023-04-05T15:31:14.955Z,98739.03
2023-04-05T15:34:18.882Z,98735.53
2023-04-05T15:37:21.604Z,98739.50
2023-04-05T15:40:24.188Z,98736.34
2023-04-05T15:43:27.042Z,98731.25
2023-04-05T15:46:29.873Z,98732.84
2023-04-05T15:49:34.023Z,98731.50
2023-04-05T15:52:36.944Z,98731.28
2023-04-05T15:55:39.456Z,98725.84
2023-04-05T15:58:42.108Z,98724.19
2023-04-05T16:01:44.802Z,98729.19
2023-04-05T16:04:48.692Z,98722.38
2023-04-05T16:07:51.273Z,98718.50
2023-04-05T16:10:54.098Z,98726.41
2023-04-05T16:13:56.967Z,98722.81
2023-04-05T16:16:59.786Z,98727.19
2023-04-05T16:20:03.736Z,98722.56
2023-04-05T16:23:06.287Z,98723.94
2023-04-05T16:26:09.092Z,98725.16
2023-04-05T16:29:11.883Z,98712.19
2023-04-05T16:32:14.783Z,98722.91
2023-04-05T16:35:19.301Z,98718.91
2023-04-05T16:38:21.844Z,98717.66
2023-04-05T16:41:24.424Z,98719.81
2023-04-05T16:44:27.040Z,98719.47
2023-04-05T16:47:29.641Z,98722.75
2023-04-05T16:50:34.009Z,98719.03
2023-04-05T16:53:36.547Z,98717.81
2023-04-05T16:56:39.035Z,98708.94
2023-04-05T16:59:42.008Z,98716.97
2023-04-05T17:02:44.747Z,98726.78
2023-04-05T17:05:48.706Z,98718.22
2023-04-05T17:08:51.569Z,98724.63
2023-04-05T17:11:54.280Z,98729.59
2023-04-05T17:14:56.918Z,98727.28
2023-04-05T17:17:59.614Z,98739.69
2023-04-05T17:21:03.702Z,98735.78
2023-04-05T17:24:06.805Z,98736.28
2023-04-05T17:27:09.388Z,98733.97
2023-04-05T17:30:14.023Z,98740.97
2023-04-05T17:33:16.789Z,98735.91
2023-04-05T17:36:21.138Z,98737.59
2023-04-05T17:39:23.722Z,98745.81
2023-04-05T17:42:26.353Z,98747.50
2023-04-05T17:45:29.430Z,98746.78
2023-04-05T17:48:32.958Z,98747.28
2023-04-05T17:51:36.959Z,98748.13
2023-04-05T17:54:40.143Z,98752.22
2023-04-05T17:57:42.922Z,98747.63
2023-04-05T18:00:45.872Z,98751.19
2023-04-05T18:03:48.985Z,98746.47
2023-04-05T18:06:52.950Z,98741.53
2023-04-05T18:09:56.056Z,98754.47
2023-04-05T18:12:58.899Z,98752.47
2023-04-05T18:16:02.027Z,98758.09
2023-04-05T18:19:05.092Z,98756.78
2023-04-05T18:22:09.290Z,98763.66
2023-04-05T18:25:12.978Z,98774.47
2023-04-05T18:28:22.316Z,98771.56
2023-04-05T18:31:25.945Z,98778.28
2023-04-05T18:34:28.538Z,98773.34
2023-04-05T18:37:32.422Z,98777.94
2023-04-05T18:40:34.993Z,98788.63
2023-04-05T18:43:37.638Z,98790.78
2023-04-05T18:46:40.284Z,98788.56
2023-04-05T18:49:43.035Z,98793.13
2023-04-05T18:52:47.023Z,98797.28
2023-04-05T18:55:51.390Z,98790.38
2023-04-05T18:58:54.099Z,98802.16
2023-04-05T19:01:56.890Z,98799.63
2023-04-05T19:04:59.586Z,98801.88
2023-04-05T19:08:03.549Z,98805.78
2023-04-05T19:11:07.224Z,98811.41
2023-04-05T19:14:09.820Z,98806.66
2023-04-05T19:17:12.523Z,98804.78
2023-04-05T19:20:15.391Z,98806.44
2023-04-05T19:23:19.316Z,98800.75
2023-04-05T19:26:22.683Z,98806.88
2023-04-05T19:29:25.466Z,98811.31
2023-04-05T19:32:28.140Z,98815.78
2023-04-05T19:35:32.157Z,98813.06
2023-04-05T19:38:36.263Z,98819.81
2023-04-05T19:41:38.928Z,98816.59
2023-04-05T19:44:50.742Z,98819.63
2023-04-05T19:47:54.138Z,98818.09
2023-04-05T19:50:56.804Z,98813.88
2023-04-05T19:54:04.548Z,98816.03
2023-04-05T19:57:07.550Z,98801.84
2023-04-05T20:00:31.764Z,98811.63
2023-04-05T20:03:35.852Z,98804.09
2023-04-05T20:06:39.157Z,98815.28
2023-04-05T20:09:43.243Z,98819.44
2023-04-05T20:12:45.883Z,98815.91
2023-04-05T20:15:50.722Z,98816.75
2023-04-05T20:18:54.368Z,98814.63
2023-04-05T20:21:58.628Z,98820.06
2023-04-05T20:25:02.608Z,98816.28
2023-04-05T20:28:09.120Z,98818.19
2023-04-05T20:31:21.949Z,98815.19
2023-04-05T20:34:28.494Z,98811.38
2023-04-05T20:37:31.299Z,98811.88
2023-04-05T20:40:35.411Z,98820.56
2023-04-05T20:43:38.653Z,98812.50
2023-04-05T20:46:41.215Z,98812.56
2023-04-05T20:49:44.757Z,98821.25
2023-04-05T20:52:47.347Z,98815.56
2023-04-05T20:55:51.508Z,98814.69
2023-04-05T20:58:54.820Z,98815.78
2023-04-05T21:01:57.723Z,98812.84
2023-04-05T21:05:00.699Z,98810.94
2023-04-05T21:08:03.348Z,98812.00
2023-04-05T21:11:08.011Z,98815.25
2023-04-05T21:14:10.508Z,98822.28
2023-04-05T21:17:13.078Z,98817.97
2023-04-05T21:20:15.655Z,98817.44
2023-04-05T21:23:18.750Z,98806.94
2023-04-05T21:26:22.617Z,98810.69
2023-04-05T21:29:25.036Z,98818.03
2023-04-05T21:32:27.830Z,98818.31
2023-04-05T21:35:31.138Z,98823.97
2023-04-05T21:38:33.666Z,98821.25
2023-04-05T21:41:37.593Z,98818.53
2023-04-05T21:44:40.144Z,98822.06
2023-04-05T21:47:42.850Z,98816.13
2023-04-05T21:50:45.536Z,98811.00
2023-04-05T21:53:48.122Z,98817.19
2023-04-05T21:56:52.164Z,98816.94
2023-04-05T21:59:54.818Z,98820.19
2023-04-05T22:02:57.582Z,98815.31
2023-04-05T22:06:02.019Z,98821.50
2023-04-05T22:09:04.692Z,98822.34
2023-04-05T22:12:08.711Z,98818.56
2023-04-05T22:15:12.239Z,98823.41
2023-04-05T22:18:14.847Z,98823.44
2023-04-05T22:21:17.465Z,98826.09
2023-04-05T22:24:20.031Z,98818.00
2023-04-05T22:27:23.865Z,98826.06
2023-04-05T22:30:27.980Z,98824.69
2023-04-05T22:33:30.719Z,98830.84
2023-04-05T22:36:33.231Z,98821.41
2023-04-05T22:39:35.721Z,98820.00
2023-04-05T22:42:41.887Z,98822.69
2023-04-05T22:45:44.454Z,98827.28
2023-04-05T22:48:47.092Z,98820.53
2023-04-05T22:51:49.619Z,98823.75
2023-04-05T22:54:52.187Z,98818.63
2023-04-05T22:57:56.627Z,98814.03
2023-04-05T23:00:59.327Z,98821.03
2023-04-05T23:04:02.269Z,98818.31
2023-04-05T23:07:04.861Z,98817.78
2023-04-05T23:10:08.065Z,98814.81
2023-04-05T23:13:12.147Z,98819.16
2023-04-05T23:16:14.797Z,98822.66
2023-04-05T23:19:17.556Z,98823.09
2023-04-05T23:22:20.121Z,98817.13
2023-04-05T23:25:22.902Z,98815.25
2023-04-05T23:28:26.735Z,98817.38
2023-04-05T23:31:29.106Z,98813.09
2023-04-05T23:34:31.629Z,98811.19
2023-04-05T23:37:34.179Z,98807.06
2023-04-05T23:40:36.715Z,98814.81
2023-04-05T23:43:40.654Z,98821.88
2023-04-05T23:46:43.085Z,98811.03
2023-04-05T23:49:45.625Z,98813.47
2023-04-05T23:52:48.148Z,98804.66
2023-04-05T23:55:53.362Z,98805.66
2023-04-05T23:58:57.299Z,98806.16
